createdAt,value
2023-04-27T00:00:38.123Z,71.94
2023-04-27T00:01:37.274Z,69.34
2023-04-27T00:02:38.228Z,67.16
2023-04-27T00:03:38.170Z,66.64
2023-04-27T00:04:36.799Z,66.96
2023-04-27T00:05:37.357Z,67.79
2023-04-27T00:06:38.051Z,67.68
2023-04-27T00:07:38.017Z,67.27
2023-04-27T00:08:38.023Z,67.16
2023-04-27T00:09:38.016Z,65.60
2023-04-27T00:10:37.988Z,64.67
2023-04-27T00:11:37.251Z,64.87
2023-04-27T00:12:37.281Z,63.73
2023-04-27T00:13:37.975Z,63.11
2023-04-27T00:14:37.928Z,63.73
2023-04-27T00:15:37.929Z,64.25
2023-04-27T00:16:37.954Z,64.43
2023-04-27T00:17:37.947Z,64.54
2023-04-27T00:18:37.874Z,64.95
2023-04-27T00:19:37.861Z,65.26
2023-04-27T00:20:36.399Z,64.75
2023-04-27T00:21:36.887Z,65.06
2023-04-27T00:22:37.834Z,65.37
2023-04-27T00:23:37.801Z,65.47
2023-04-27T00:24:37.800Z,64.54
2023-04-27T00:25:37.785Z,64.23
2023-04-27T00:26:37.761Z,63.40
2023-04-27T00:27:37.772Z,64.23
2023-04-27T00:28:36.286Z,64.43
2023-04-27T00:29:37.718Z,64.82
2023-04-27T00:30:37.724Z,64.72
2023-04-27T00:31:37.786Z,64.40
2023-04-27T00:32:37.732Z,64.30
2023-04-27T00:33:37.680Z,63.99
2023-04-27T00:34:37.656Z,64.30
2023-04-27T00:35:37.651Z,64.72
2023-04-27T00:36:36.189Z,65.34
2023-04-27T00:37:37.646Z,66.06
2023-04-27T00:38:37.620Z,66.89
2023-04-27T00:39:37.597Z,66.89
2023-04-27T00:40:37.590Z,65.00
2023-04-27T00:41:37.568Z,64.58
2023-04-27T00:42:37.570Z,65.62
2023-04-27T00:43:37.533Z,68.10
2023-04-27T00:44:36.119Z,69.76
2023-04-27T00:45:37.592Z,69.56
2023-04-27T00:46:37.494Z,69.63
2023-04-27T00:47:37.552Z,70.04
2023-04-27T00:48:37.478Z,69.84
2023-04-27T00:49:37.461Z,70.15
2023-04-27T00:50:37.439Z,70.76
2023-04-27T00:51:37.420Z,71.08
2023-04-27T00:52:37.420Z,71.59
2023-04-27T00:53:37.431Z,71.80
2023-04-27T00:54:37.358Z,72.22
2023-04-27T00:55:37.378Z,72.53
2023-04-27T00:56:37.368Z,72.94
2023-04-27T00:57:37.384Z,72.91
2023-04-27T00:58:37.349Z,73.22
2023-04-27T00:59:37.324Z,73.74
2023-04-27T01:00:36.136Z,73.94
2023-04-27T01:01:37.362Z,74.36
2023-04-27T01:02:36.021Z,74.26
2023-04-27T01:03:37.377Z,74.77
2023-04-27T01:04:37.383Z,74.57
2023-04-27T01:05:37.255Z,75.19
2023-04-27T01:06:37.261Z,73.84
2023-04-27T01:07:37.233Z,74.15
2023-04-27T01:08:35.800Z,74.26
2023-04-27T01:09:36.101Z,74.67
2023-04-27T01:10:37.189Z,74.67
2023-04-27T01:11:37.176Z,75.09
2023-04-27T01:12:37.170Z,73.94
2023-04-27T01:13:37.191Z,74.57
2023-04-27T01:14:37.127Z,74.57
2023-04-27T01:15:37.122Z,75.40
2023-04-27T01:16:35.689Z,75.60
2023-04-27T01:17:37.185Z,75.60
2023-04-27T01:18:37.083Z,76.09
2023-04-27T01:19:37.072Z,75.26
2023-04-27T01:20:35.724Z,74.84
2023-04-27T01:21:37.057Z,74.22
2023-04-27T01:22:37.034Z,74.32
2023-04-27T01:23:37.004Z,74.63
2023-04-27T01:24:35.848Z,74.53
2023-04-27T01:25:36.983Z,74.95
2023-04-27T01:26:36.980Z,75.15
2023-04-27T01:27:36.975Z,75.36
2023-04-27T01:28:37.013Z,73.91
2023-04-27T01:29:35.978Z,73.71
2023-04-27T01:30:36.921Z,73.91
2023-04-27T01:31:37.042Z,74.32
2023-04-27T01:32:36.990Z,74.32
2023-04-27T01:33:36.872Z,74.63
2023-04-27T01:34:36.857Z,74.84
2023-04-27T01:35:36.850Z,74.95
2023-04-27T01:36:36.828Z,75.46
2023-04-27T01:37:36.833Z,75.05
2023-04-27T01:38:36.798Z,74.95
2023-04-27T01:39:36.786Z,74.95
2023-04-27T01:40:36.782Z,74.95
2023-04-27T01:41:36.775Z,74.74
2023-04-27T01:42:36.766Z,74.63
2023-04-27T01:43:36.778Z,74.74
2023-04-27T01:44:36.742Z,74.74
2023-04-27T01:45:36.721Z,74.84
2023-04-27T01:46:36.777Z,75.26
2023-04-27T01:47:36.736Z,74.84
2023-04-27T01:48:36.674Z,74.43
2023-04-27T01:49:36.646Z,74.22
2023-04-27T01:50:36.638Z,72.98
2023-04-27T01:51:36.634Z,71.73
2023-04-27T01:52:36.631Z,72.46
2023-04-27T01:53:36.618Z,73.08
2023-04-27T01:54:36.591Z,73.29
2023-04-27T01:55:36.566Z,72.98
2023-04-27T01:56:36.567Z,73.91
2023-04-27T01:57:36.553Z,73.81
2023-04-27T01:58:36.540Z,73.29
2023-04-27T01:59:36.552Z,75.05
2023-04-27T02:00:36.509Z,76.19
2023-04-27T02:01:36.535Z,76.50
2023-04-27T02:02:36.662Z,75.67
2023-04-27T02:03:36.600Z,75.78
2023-04-27T02:04:36.851Z,75.36
2023-04-27T02:05:36.452Z,75.46
2023-04-27T02:06:36.457Z,76.50
2023-04-27T02:07:36.512Z,76.71
2023-04-27T02:08:36.452Z,77.74
2023-04-27T02:09:36.422Z,76.71
2023-04-27T02:10:36.382Z,77.74
2023-04-27T02:11:36.371Z,78.02
2023-04-27T02:12:34.910Z,78.33
2023-04-27T02:13:36.338Z,78.53
2023-04-27T02:14:35.255Z,78.22
2023-04-27T02:15:36.313Z,78.64
2023-04-27T02:16:36.404Z,77.91
2023-04-27T02:17:35.374Z,77.91
2023-04-27T02:18:36.292Z,78.02
2023-04-27T02:19:35.545Z,78.33
2023-04-27T02:20:35.363Z,77.81
2023-04-27T02:21:36.236Z,77.81
2023-04-27T02:22:35.372Z,77.81
2023-04-27T02:23:36.205Z,78.02
2023-04-27T02:24:36.189Z,76.98
2023-04-27T02:25:36.192Z,76.36
2023-04-27T02:26:36.163Z,76.26
2023-04-27T02:27:35.372Z,75.74
2023-04-27T02:28:36.126Z,75.02
2023-04-27T02:29:36.129Z,75.53
2023-04-27T02:30:34.657Z,76.15
2023-04-27T02:31:36.160Z,76.26
2023-04-27T02:32:36.120Z,75.43
2023-04-27T02:33:36.069Z,75.95
2023-04-27T02:34:35.364Z,75.95
2023-04-27T02:35:35.354Z,76.88
2023-04-27T02:36:36.052Z,77.19
2023-04-27T02:37:36.038Z,76.88
2023-04-27T02:38:35.993Z,76.78
2023-04-27T02:39:35.996Z,76.57
2023-04-27T02:40:35.295Z,76.57
2023-04-27T02:41:35.959Z,76.36
2023-04-27T02:42:35.962Z,76.05
2023-04-27T02:43:35.229Z,75.53
2023-04-27T02:44:35.932Z,76.53
2023-04-27T02:45:35.909Z,76.84
2023-04-27T02:46:35.920Z,77.47
2023-04-27T02:47:35.919Z,77.98
2023-04-27T02:48:35.470Z,77.56
2023-04-27T02:49:37.973Z,77.15
2023-04-27T02:50:35.840Z,77.47
2023-04-27T02:51:34.400Z,77.36
2023-04-27T02:52:35.834Z,76.53
2023-04-27T02:53:35.784Z,76.32
2023-04-27T02:54:35.772Z,75.81
2023-04-27T02:55:35.772Z,76.12
2023-04-27T02:56:35.746Z,76.53
2023-04-27T02:57:35.762Z,76.78
2023-04-27T02:58:35.727Z,76.88
2023-04-27T02:59:35.697Z,76.15
2023-04-27T03:00:35.685Z,75.74
2023-04-27T03:01:35.780Z,75.74
2023-04-27T03:02:35.742Z,75.32
2023-04-27T03:03:35.756Z,75.32
2023-04-27T03:04:35.685Z,75.22
2023-04-27T03:05:35.643Z,74.81
2023-04-27T03:06:35.604Z,74.60
2023-04-27T03:07:34.153Z,74.08
2023-04-27T03:08:35.586Z,73.05
2023-04-27T03:09:35.569Z,71.60
2023-04-27T03:10:35.555Z,70.05
2023-04-27T03:11:37.359Z,70.87
2023-04-27T03:12:35.535Z,71.29
2023-04-27T03:13:35.520Z,71.81
2023-04-27T03:14:35.492Z,72.43
2023-04-27T03:15:35.473Z,72.12
2023-04-27T03:16:35.523Z,72.64
2023-04-27T03:17:35.530Z,71.08
2023-04-27T03:18:35.442Z,70.57
2023-04-27T03:19:35.420Z,69.84
2023-04-27T03:20:35.420Z,70.57
2023-04-27T03:21:35.412Z,70.05
2023-04-27T03:22:35.369Z,70.26
2023-04-27T03:23:33.928Z,70.98
2023-04-27T03:24:35.362Z,71.50
2023-04-27T03:25:35.338Z,71.70
2023-04-27T03:26:34.195Z,71.19
2023-04-27T03:27:35.338Z,70.57
2023-04-27T03:28:34.201Z,71.60
2023-04-27T03:29:35.312Z,72.33
2023-04-27T03:30:34.219Z,71.70
2023-04-27T03:31:34.245Z,71.50
2023-04-27T03:32:34.240Z,71.70
2023-04-27T03:33:35.285Z,71.39
2023-04-27T03:34:35.243Z,71.39
2023-04-27T03:35:35.216Z,70.98
2023-04-27T03:36:35.193Z,70.98
2023-04-27T03:37:35.185Z,71.08
2023-04-27T03:38:35.189Z,71.50
2023-04-27T03:39:33.708Z,71.70
2023-04-27T03:40:35.143Z,70.87
2023-04-27T03:41:35.132Z,71.70
2023-04-27T03:42:35.127Z,70.87
2023-04-27T03:43:35.108Z,71.70
2023-04-27T03:44:35.107Z,72.22
2023-04-27T03:45:35.178Z,72.74
2023-04-27T03:46:35.233Z,72.85
2023-04-27T03:47:35.099Z,73.05
2023-04-27T03:48:35.027Z,72.53
2023-04-27T03:49:35.024Z,71.08
2023-04-27T03:50:35.012Z,71.60
2023-04-27T03:51:34.985Z,71.50
2023-04-27T03:52:35.000Z,72.22
2023-04-27T03:53:34.991Z,72.33
2023-04-27T03:54:34.954Z,72.22
2023-04-27T03:55:33.499Z,71.91
2023-04-27T03:56:34.924Z,72.02
2023-04-27T03:57:34.926Z,72.33
2023-04-27T03:58:34.905Z,72.94
2023-04-27T03:59:34.878Z,73.05
2023-04-27T04:00:34.865Z,73.05
2023-04-27T04:01:34.858Z,71.60
2023-04-27T04:02:34.906Z,71.81
2023-04-27T04:03:33.535Z,72.02
2023-04-27T04:04:35.026Z,71.60
2023-04-27T04:05:34.822Z,70.87
2023-04-27T04:06:34.787Z,70.87
2023-04-27T04:07:34.773Z,70.77
2023-04-27T04:08:34.773Z,70.77
2023-04-27T04:09:34.774Z,69.43
2023-04-27T04:10:34.730Z,70.15
2023-04-27T04:11:33.266Z,69.22
2023-04-27T04:12:34.707Z,69.22
2023-04-27T04:13:34.718Z,68.91
2023-04-27T04:14:34.684Z,69.95
2023-04-27T04:15:34.682Z,69.95
2023-04-27T04:16:34.675Z,70.26
2023-04-27T04:17:34.653Z,70.36
2023-04-27T04:18:34.626Z,70.87
2023-04-27T04:19:33.462Z,70.77
2023-04-27T04:20:34.587Z,70.77
2023-04-27T04:21:34.583Z,71.60
2023-04-27T04:22:34.560Z,72.02
2023-04-27T04:23:34.558Z,72.64
2023-04-27T04:24:34.551Z,71.33
2023-04-27T04:25:34.534Z,71.33
2023-04-27T04:26:34.527Z,70.39
2023-04-27T04:27:33.049Z,69.56
2023-04-27T04:28:34.489Z,69.67
2023-04-27T04:29:34.493Z,69.56
2023-04-27T04:30:34.472Z,69.67
2023-04-27T04:31:34.482Z,69.87
2023-04-27T04:32:34.490Z,70.29
2023-04-27T04:33:34.437Z,69.98
2023-04-27T04:34:33.181Z,69.08
2023-04-27T04:35:33.220Z,68.66
2023-04-27T04:36:34.390Z,69.80
2023-04-27T04:37:34.414Z,69.70
2023-04-27T04:38:34.376Z,70.63
2023-04-27T04:39:34.352Z,70.32
2023-04-27T04:40:34.324Z,70.63
2023-04-27T04:41:33.372Z,69.80
2023-04-27T04:42:34.307Z,68.46
2023-04-27T04:43:34.326Z,69.18
2023-04-27T04:44:34.289Z,68.35
2023-04-27T04:45:34.281Z,68.04
2023-04-27T04:46:33.540Z,67.21
2023-04-27T04:47:34.367Z,68.07
2023-04-27T04:48:34.258Z,68.15
2023-04-27T04:49:34.216Z,67.35
2023-04-27T04:50:33.203Z,66.62
2023-04-27T04:51:32.733Z,64.86
2023-04-27T04:52:34.184Z,64.45
2023-04-27T04:53:34.189Z,65.38
2023-04-27T04:54:34.160Z,66.21
2023-04-27T04:55:34.140Z,65.59
2023-04-27T04:56:34.121Z,65.48
2023-04-27T04:57:34.154Z,66.59
2023-04-27T04:58:34.118Z,66.49
2023-04-27T04:59:34.128Z,67.11
2023-04-27T05:00:34.094Z,68.04
2023-04-27T05:01:34.103Z,69.80
2023-04-27T05:02:34.161Z,69.98
2023-04-27T05:03:34.249Z,71.43
2023-04-27T05:04:34.075Z,71.94
2023-04-27T05:05:34.006Z,71.43
2023-04-27T05:06:33.307Z,70.29
2023-04-27T05:07:32.526Z,69.15
2023-04-27T05:08:33.996Z,69.43
2023-04-27T05:09:33.955Z,70.05
2023-04-27T05:10:33.951Z,70.67
2023-04-27T05:11:33.936Z,71.50
2023-04-27T05:12:33.912Z,73.67
2023-04-27T05:13:33.932Z,74.40
2023-04-27T05:14:33.902Z,74.91
2023-04-27T05:15:33.875Z,73.98
2023-04-27T05:16:34.060Z,74.08
2023-04-27T05:17:33.865Z,74.81
2023-04-27T05:18:33.880Z,76.15
2023-04-27T05:19:33.826Z,76.78
2023-04-27T05:20:33.800Z,76.43
2023-04-27T05:21:33.791Z,76.84
2023-04-27T05:22:33.777Z,76.43
2023-04-27T05:23:33.769Z,75.78
2023-04-27T05:24:33.750Z,77.22
2023-04-27T05:25:33.736Z,79.49
2023-04-27T05:26:33.725Z,80.63
2023-04-27T05:27:33.713Z,79.49
2023-04-27T05:28:33.716Z,80.70
2023-04-27T05:29:33.677Z,81.73
2023-04-27T05:30:33.673Z,82.15
2023-04-27T05:31:33.735Z,82.10
2023-04-27T05:32:33.742Z,81.49
2023-04-27T05:33:33.632Z,85.00
2023-04-27T05:34:33.612Z,84.69
2023-04-27T05:35:33.595Z,83.93
2023-04-27T05:36:33.618Z,83.83
2023-04-27T05:37:33.605Z,84.09
2023-04-27T05:38:32.304Z,86.05
2023-04-27T05:39:33.551Z,86.16
2023-04-27T05:40:33.527Z,88.43
2023-04-27T05:41:33.525Z,91.38
2023-04-27T05:42:32.102Z,90.25
2023-04-27T05:43:33.497Z,91.17
2023-04-27T05:44:32.248Z,90.55
2023-04-27T05:45:33.574Z,92.41
2023-04-27T05:46:32.256Z,91.17
2023-04-27T05:47:31.993Z,90.86
2023-04-27T05:48:33.426Z,89.22
2023-04-27T05:49:33.445Z,88.18
2023-04-27T05:50:33.388Z,90.14
2023-04-27T05:51:33.381Z,96.12
2023-04-27T05:52:32.311Z,97.31
2023-04-27T05:53:32.269Z,95.05
2023-04-27T05:54:33.336Z,95.10
2023-04-27T05:55:31.881Z,97.06
2023-04-27T05:56:33.313Z,98.71
2023-04-27T05:57:33.293Z,99.99
2023-04-27T05:58:33.297Z,99.99
2023-04-27T05:59:32.804Z,99.99
2023-04-27T06:00:32.270Z,99.99
2023-04-27T06:01:33.254Z,99.99
2023-04-27T06:02:32.509Z,99.99
2023-04-27T06:03:31.870Z,99.99
2023-04-27T06:04:33.317Z,99.99
2023-04-27T06:05:33.451Z,99.99
2023-04-27T06:06:33.177Z,99.99
2023-04-27T06:07:33.160Z,99.99
2023-04-27T06:08:33.161Z,99.99
2023-04-27T06:09:33.134Z,99.99
2023-04-27T06:10:33.117Z,99.99
2023-04-27T06:11:33.098Z,96.41
2023-04-27T06:12:33.139Z,93.56
2023-04-27T06:13:33.107Z,93.52
2023-04-27T06:14:33.079Z,93.83
2023-04-27T06:15:32.105Z,92.80
2023-04-27T06:16:33.188Z,93.83
2023-04-27T06:17:33.059Z,94.76
2023-04-27T06:18:33.016Z,98.25
2023-04-27T06:19:31.562Z,99.99
2023-04-27T06:20:33.014Z,99.99
2023-04-27T06:21:32.981Z,99.99
2023-04-27T06:22:32.575Z,99.99
2023-04-27T06:23:33.001Z,99.99
2023-04-27T06:24:32.957Z,99.99
2023-04-27T06:25:32.937Z,99.99
2023-04-27T06:26:32.918Z,99.99
2023-04-27T06:27:32.929Z,99.99
2023-04-27T06:28:32.882Z,99.99
2023-04-27T06:29:32.885Z,99.99
2023-04-27T06:30:32.863Z,99.99
2023-04-27T06:31:32.907Z,99.99
2023-04-27T06:32:32.849Z,99.99
2023-04-27T06:33:32.817Z,99.99
2023-04-27T06:34:32.796Z,99.99
2023-04-27T06:35:31.332Z,99.99
2023-04-27T06:36:32.818Z,99.99
2023-04-27T06:37:32.881Z,99.99
2023-04-27T06:38:32.756Z,99.99
2023-04-27T06:39:32.745Z,99.99
2023-04-27T06:40:32.732Z,99.99
2023-04-27T06:41:32.715Z,98.60
2023-04-27T06:42:32.702Z,88.98
2023-04-27T06:43:31.575Z,77.19
2023-04-27T06:44:32.684Z,69.29
2023-04-27T06:45:32.154Z,65.83
2023-04-27T06:46:32.781Z,61.36
2023-04-27T06:47:32.629Z,58.91
2023-04-27T06:48:32.629Z,55.98
2023-04-27T06:49:32.626Z,53.52
2023-04-27T06:50:32.585Z,54.21
2023-04-27T06:51:31.113Z,56.73
2023-04-27T06:52:32.555Z,59.91
2023-04-27T06:53:32.560Z,58.45
2023-04-27T06:54:32.546Z,58.53
2023-04-27T06:55:32.513Z,61.04
2023-04-27T06:56:32.519Z,64.02
2023-04-27T06:57:32.509Z,62.82
2023-04-27T06:58:31.346Z,63.75
2023-04-27T06:59:32.460Z,63.98
2023-04-27T07:00:32.449Z,64.69
2023-04-27T07:01:32.472Z,65.47
2023-04-27T07:02:32.476Z,69.73
2023-04-27T07:03:32.534Z,66.60
2023-04-27T07:04:32.432Z,63.61
2023-04-27T07:05:32.373Z,60.85
2023-04-27T07:06:30.965Z,57.18
2023-04-27T07:07:30.987Z,55.17
2023-04-27T07:08:31.852Z,54.31
2023-04-27T07:09:32.856Z,53.88
2023-04-27T07:10:30.966Z,52.36
2023-04-27T07:11:31.792Z,52.94
2023-04-27T07:12:31.806Z,50.82
2023-04-27T07:13:30.991Z,52.66
2023-04-27T07:14:30.988Z,51.88
2023-04-27T07:15:31.771Z,52.28
2023-04-27T07:16:31.854Z,52.00
2023-04-27T07:17:31.951Z,53.55
2023-04-27T07:18:31.710Z,53.55
2023-04-27T07:19:31.692Z,52.94
2023-04-27T07:20:31.685Z,52.18
2023-04-27T07:21:30.983Z,54.05
2023-04-27T07:22:30.774Z,51.88
2023-04-27T07:23:32.132Z,50.87
2023-04-27T07:24:30.986Z,50.42
2023-04-27T07:25:32.102Z,48.78
2023-04-27T07:26:32.096Z,47.54
2023-04-27T07:27:32.079Z,47.22
2023-04-27T07:28:32.071Z,46.79
2023-04-27T07:29:32.505Z,46.92
2023-04-27T07:30:30.637Z,48.27
2023-04-27T07:31:32.060Z,49.61
2023-04-27T07:32:32.028Z,49.41
2023-04-27T07:33:31.992Z,50.57
2023-04-27T07:34:41.205Z,50.84
2023-04-27T07:35:32.974Z,49.58
2023-04-27T07:36:31.963Z,49.53
2023-04-27T07:37:31.952Z,51.15
2023-04-27T07:38:31.928Z,51.37
2023-04-27T07:39:31.934Z,50.69
2023-04-27T07:40:31.921Z,51.17
2023-04-27T07:41:31.895Z,50.37
2023-04-27T07:42:31.877Z,50.64
2023-04-27T07:43:31.856Z,48.60
2023-04-27T07:44:31.857Z,49.51
2023-04-27T07:45:31.934Z,50.26
2023-04-27T07:46:31.813Z,51.98
2023-04-27T07:47:31.807Z,54.24
2023-04-27T07:48:31.797Z,54.03
2023-04-27T07:49:31.786Z,55.07
2023-04-27T07:50:31.764Z,53.70
2023-04-27T07:51:31.765Z,53.17
2023-04-27T07:52:31.741Z,53.25
2023-04-27T07:53:31.729Z,53.25
2023-04-27T07:54:31.744Z,53.88
2023-04-27T07:55:31.705Z,53.60
2023-04-27T07:56:31.696Z,53.30
2023-04-27T07:57:31.674Z,52.79
2023-04-27T07:58:31.643Z,52.69
2023-04-27T07:59:30.354Z,53.40
2023-04-27T08:00:31.620Z,53.30
2023-04-27T08:01:31.623Z,54.21
2023-04-27T08:02:30.286Z,53.37
2023-04-27T08:03:30.551Z,53.37
2023-04-27T08:04:31.951Z,53.96
2023-04-27T08:05:32.059Z,51.93
2023-04-27T08:06:32.105Z,54.05
2023-04-27T08:07:31.933Z,53.17
2023-04-27T08:08:31.512Z,53.37
2023-04-27T08:09:31.499Z,53.88
2023-04-27T08:10:30.373Z,53.75
2023-04-27T08:11:31.461Z,52.13
2023-04-27T08:12:31.459Z,52.74
2023-04-27T08:13:30.366Z,53.37
2023-04-27T08:14:31.442Z,54.16
2023-04-27T08:15:30.380Z,53.88
2023-04-27T08:16:31.467Z,54.26
2023-04-27T08:17:31.410Z,53.05
2023-04-27T08:18:30.383Z,53.65
2023-04-27T08:19:30.386Z,53.05
2023-04-27T08:20:31.364Z,53.14
2023-04-27T08:21:30.380Z,52.94
2023-04-27T08:22:30.381Z,52.81
2023-04-27T08:23:31.337Z,52.44
2023-04-27T08:24:31.318Z,53.55
2023-04-27T08:25:31.278Z,52.84
2023-04-27T08:26:29.856Z,52.81
2023-04-27T08:27:31.263Z,52.54
2023-04-27T08:28:31.245Z,52.54
2023-04-27T08:29:31.490Z,53.14
2023-04-27T08:30:31.217Z,52.76
2023-04-27T08:31:31.266Z,54.59
2023-04-27T08:32:31.193Z,54.26
2023-04-27T08:33:31.208Z,53.05
2023-04-27T08:34:30.103Z,53.05
2023-04-27T08:35:31.133Z,52.33
2023-04-27T08:36:31.143Z,51.75
2023-04-27T08:37:31.126Z,52.56
2023-04-27T08:38:31.103Z,52.94
2023-04-27T08:39:31.093Z,52.84
2023-04-27T08:40:31.087Z,52.61
2023-04-27T08:41:31.064Z,52.08
2023-04-27T08:42:31.040Z,52.48
2023-04-27T08:43:31.056Z,51.37
2023-04-27T08:44:31.053Z,51.86
2023-04-27T08:45:31.015Z,49.91
2023-04-27T08:46:31.020Z,49.38
2023-04-27T08:47:41.628Z,48.88
2023-04-27T08:48:32.079Z,49.18
2023-04-27T08:49:31.001Z,49.69
2023-04-27T08:50:31.013Z,50.70
2023-04-27T08:51:31.441Z,49.24
2023-04-27T08:52:30.988Z,48.53
2023-04-27T08:53:30.951Z,48.05
2023-04-27T08:54:30.926Z,50.85
2023-04-27T08:55:30.951Z,47.90
2023-04-27T08:56:30.940Z,47.25
2023-04-27T08:57:30.846Z,47.33
2023-04-27T08:58:30.821Z,47.20
2023-04-27T08:59:30.824Z,46.91
2023-04-27T09:00:30.814Z,46.70
2023-04-27T09:01:29.953Z,46.38
2023-04-27T09:02:30.823Z,46.70
2023-04-27T09:03:30.909Z,46.10
2023-04-27T09:04:30.879Z,46.83
2023-04-27T09:05:30.748Z,46.08
2023-04-27T09:06:30.747Z,45.63
2023-04-27T09:07:30.701Z,44.83
2023-04-27T09:08:30.702Z,43.80
2023-04-27T09:09:30.718Z,43.48
2023-04-27T09:10:30.672Z,43.94
2023-04-27T09:11:30.661Z,45.14
2023-04-27T09:12:30.646Z,42.96
2023-04-27T09:13:30.626Z,44.99
2023-04-27T09:14:29.168Z,43.06
2023-04-27T09:15:30.605Z,43.42
2023-04-27T09:16:30.661Z,43.52
2023-04-27T09:17:30.782Z,44.12
2023-04-27T09:18:30.557Z,45.02
2023-04-27T09:19:29.486Z,43.40
2023-04-27T09:20:30.552Z,42.77
2023-04-27T09:21:30.507Z,41.75
2023-04-27T09:22:29.523Z,42.16
2023-04-27T09:23:29.538Z,41.93
2023-04-27T09:24:30.478Z,42.30
2023-04-27T09:25:30.529Z,41.35
2023-04-27T09:26:30.452Z,40.93
2023-04-27T09:27:30.439Z,41.03
2023-04-27T09:28:30.427Z,42.07
2023-04-27T09:29:30.417Z,41.15
2023-04-27T09:30:28.950Z,40.09
2023-04-27T09:31:29.713Z,38.46
2023-04-27T09:32:30.383Z,38.64
2023-04-27T09:33:30.361Z,40.30
2023-04-27T09:34:30.351Z,40.04
2023-04-27T09:35:30.325Z,39.82
2023-04-27T09:36:30.305Z,38.90
2023-04-27T09:37:30.298Z,38.89
2023-04-27T09:38:29.587Z,38.42
2023-04-27T09:39:30.301Z,38.92
2023-04-27T09:40:29.299Z,37.66
2023-04-27T09:41:30.246Z,37.34
2023-04-27T09:42:30.233Z,36.51
2023-04-27T09:43:30.215Z,36.71
2023-04-27T09:44:30.211Z,36.41
2023-04-27T09:45:30.262Z,37.34
2023-04-27T09:46:28.791Z,38.09
2023-04-27T09:47:30.198Z,37.25
2023-04-27T09:48:30.166Z,37.48
2023-04-27T09:49:30.148Z,37.39
2023-04-27T09:50:30.123Z,38.21
2023-04-27T09:51:30.105Z,38.32
2023-04-27T09:52:30.098Z,38.97
2023-04-27T09:53:28.749Z,38.42
2023-04-27T09:54:28.725Z,37.38
2023-04-27T09:55:30.061Z,36.78
2023-04-27T09:56:29.743Z,36.58
2023-04-27T09:57:30.036Z,37.76
2023-04-27T09:58:30.025Z,40.08
2023-04-27T09:59:30.019Z,38.53
2023-04-27T10:00:30.000Z,37.98
2023-04-27T10:01:30.006Z,37.93
2023-04-27T10:02:29.564Z,35.75
2023-04-27T10:03:30.056Z,37.85
2023-04-27T10:04:30.082Z,39.38
2023-04-27T10:05:29.996Z,37.90
2023-04-27T10:06:29.920Z,37.70
2023-04-27T10:07:29.903Z,39.17
2023-04-27T10:08:29.893Z,37.80
2023-04-27T10:09:29.890Z,38.85
2023-04-27T10:10:28.464Z,37.88
2023-04-27T10:11:29.840Z,39.79
2023-04-27T10:12:29.830Z,38.90
2023-04-27T10:13:29.828Z,38.17
2023-04-27T10:14:29.823Z,41.47
2023-04-27T10:15:29.845Z,42.68
2023-04-27T10:16:29.931Z,39.29
2023-04-27T10:17:28.506Z,40.19
2023-04-27T10:18:29.755Z,39.37
2023-04-27T10:19:29.728Z,38.59
2023-04-27T10:20:29.726Z,39.91
2023-04-27T10:21:29.709Z,37.70
2023-04-27T10:22:29.709Z,37.43
2023-04-27T10:23:29.695Z,38.65
2023-04-27T10:24:29.686Z,38.68
2023-04-27T10:25:28.492Z,38.57
2023-04-27T10:26:28.227Z,38.57
2023-04-27T10:27:29.631Z,39.61
2023-04-27T10:28:29.696Z,37.14
2023-04-27T10:29:29.600Z,36.09
2023-04-27T10:30:29.691Z,35.21
2023-04-27T10:31:29.692Z,37.04
2023-04-27T10:32:29.594Z,37.12
2023-04-27T10:33:28.485Z,35.51
2023-04-27T10:34:28.238Z,34.39
2023-04-27T10:35:29.547Z,34.66
2023-04-27T10:36:29.512Z,35.64
2023-04-27T10:37:29.551Z,34.25
2023-04-27T10:38:29.521Z,34.46
2023-04-27T10:39:43.735Z,34.99
2023-04-27T10:40:30.581Z,38.09
2023-04-27T10:41:28.493Z,41.13
2023-04-27T10:42:28.774Z,38.98
2023-04-27T10:43:28.501Z,34.73
2023-04-27T10:44:29.419Z,34.98
2023-04-27T10:45:31.857Z,33.81
2023-04-27T10:46:29.414Z,35.31
2023-04-27T10:47:29.417Z,36.60
2023-04-27T10:48:29.362Z,36.34
2023-04-27T10:49:27.973Z,34.86
2023-04-27T10:50:28.068Z,35.21
2023-04-27T10:51:29.324Z,33.73
2023-04-27T10:52:29.312Z,32.05
2023-04-27T10:53:29.301Z,32.18
2023-04-27T10:54:29.300Z,33.04
2023-04-27T10:55:29.293Z,31.54
2023-04-27T10:56:29.259Z,30.36
2023-04-27T10:57:29.245Z,32.53
2023-04-27T10:58:37.749Z,34.76
2023-04-27T10:59:30.238Z,35.74
2023-04-27T11:00:29.215Z,36.41
2023-04-27T11:01:29.243Z,40.80
2023-04-27T11:02:29.326Z,39.37
2023-04-27T11:03:29.255Z,36.81
2023-04-27T11:04:29.180Z,38.09
2023-04-27T11:05:29.177Z,37.29
2023-04-27T11:06:29.128Z,38.39
2023-04-27T11:07:29.199Z,39.26
2023-04-27T11:08:29.105Z,39.48
2023-04-27T11:09:29.103Z,41.55
2023-04-27T11:10:28.590Z,40.11
2023-04-27T11:11:29.122Z,39.18
2023-04-27T11:12:29.134Z,38.75
2023-04-27T11:13:29.101Z,37.71
2023-04-27T11:14:27.571Z,37.14
2023-04-27T11:15:29.033Z,36.67
2023-04-27T11:16:30.794Z,35.08
2023-04-27T11:17:29.145Z,35.49
2023-04-27T11:18:28.973Z,36.49
2023-04-27T11:19:28.984Z,38.25
2023-04-27T11:20:28.953Z,39.73
2023-04-27T11:21:28.929Z,37.77
2023-04-27T11:22:27.823Z,37.23
2023-04-27T11:23:28.997Z,36.34
2023-04-27T11:24:28.896Z,38.38
2023-04-27T11:25:28.904Z,37.62
2023-04-27T11:26:28.871Z,38.20
2023-04-27T11:27:28.865Z,36.59
2023-04-27T11:28:28.829Z,36.39
2023-04-27T11:29:27.376Z,35.23
2023-04-27T11:30:27.915Z,35.83
2023-04-27T11:31:28.869Z,35.72
2023-04-27T11:32:27.847Z,36.82
2023-04-27T11:33:27.869Z,38.06
2023-04-27T11:34:27.818Z,39.29
2023-04-27T11:35:28.791Z,39.53
2023-04-27T11:36:28.750Z,41.69
2023-04-27T11:37:27.340Z,41.19
2023-04-27T11:38:28.719Z,40.87
2023-04-27T11:39:28.988Z,40.43
2023-04-27T11:40:27.438Z,41.67
2023-04-27T11:41:28.685Z,43.78
2023-04-27T11:42:28.803Z,43.98
2023-04-27T11:43:28.663Z,45.21
2023-04-27T11:44:28.640Z,42.92
2023-04-27T11:45:27.345Z,42.74
2023-04-27T11:46:27.679Z,41.77
2023-04-27T11:47:28.173Z,42.80
2023-04-27T11:48:28.572Z,42.38
2023-04-27T11:49:28.572Z,41.35
2023-04-27T11:50:28.562Z,41.89
2023-04-27T11:51:28.551Z,42.03
2023-04-27T11:52:28.519Z,39.50
2023-04-27T11:53:27.842Z,39.36
2023-04-27T11:54:27.798Z,38.68
2023-04-27T11:55:28.504Z,38.90
2023-04-27T11:56:28.469Z,38.71
2023-04-27T11:57:28.470Z,41.49
2023-04-27T11:58:28.438Z,41.38
2023-04-27T11:59:28.425Z,42.05
2023-04-27T12:00:28.428Z,41.19
2023-04-27T12:01:37.002Z,41.31
2023-04-27T12:02:28.365Z,41.83
2023-04-27T12:03:28.569Z,41.33
2023-04-27T12:04:28.531Z,41.17
2023-04-27T12:05:28.571Z,41.43
2023-04-27T12:06:33.119Z,43.48
2023-04-27T12:07:29.340Z,42.69
2023-04-27T12:08:28.299Z,45.41
2023-04-27T12:09:26.846Z,43.40
2023-04-27T12:10:28.302Z,43.40
2023-04-27T12:11:28.273Z,43.92
2023-04-27T12:12:28.263Z,41.31
2023-04-27T12:13:28.254Z,42.61
2023-04-27T12:14:28.226Z,41.85
2023-04-27T12:15:28.221Z,43.26
2023-04-27T12:16:28.202Z,42.11
2023-04-27T12:17:26.780Z,42.85
2023-04-27T12:18:28.192Z,41.69
2023-04-27T12:19:28.166Z,39.74
2023-04-27T12:20:28.179Z,38.18
2023-04-27T12:21:28.144Z,38.07
2023-04-27T12:22:28.115Z,36.65
2023-04-27T12:23:28.111Z,37.21
2023-04-27T12:24:28.104Z,37.68
2023-04-27T12:25:28.090Z,38.91
2023-04-27T12:26:28.078Z,40.15
2023-04-27T12:27:28.066Z,40.53
2023-04-27T12:28:28.030Z,39.31
2023-04-27T12:29:28.037Z,39.93
2023-04-27T12:30:28.017Z,41.53
2023-04-27T12:31:28.103Z,43.26
2023-04-27T12:32:28.020Z,44.43
2023-04-27T12:33:26.535Z,42.66
2023-04-27T12:34:27.966Z,43.04
2023-04-27T12:35:27.944Z,41.21
2023-04-27T12:36:27.923Z,40.17
2023-04-27T12:37:27.960Z,42.16
2023-04-27T12:38:27.893Z,42.32
2023-04-27T12:39:27.908Z,40.44
2023-04-27T12:40:27.883Z,40.39
2023-04-27T12:41:26.405Z,40.58
2023-04-27T12:42:26.409Z,40.92
2023-04-27T12:43:27.901Z,39.46
2023-04-27T12:44:27.821Z,40.00
2023-04-27T12:45:27.839Z,41.57
2023-04-27T12:46:26.635Z,42.52
2023-04-27T12:47:46.536Z,42.77
2023-04-27T12:48:27.405Z,44.26
2023-04-27T12:49:26.305Z,40.52
2023-04-27T12:50:26.597Z,40.58
2023-04-27T12:51:27.732Z,41.17
2023-04-27T12:52:26.591Z,40.30